ADDS TAF Board (Experimental) INFO Settings
IDs: Format: Expanded Condensed

KCVG - Cincinnati Intl, KY, US

Issued at 0906 UTC 30 Aug 2016
Updated at 1051 UTC 30 Aug 2016
Time0952Z 30/11Z 30/12Z 30/13Z 30/14Z 30/15Z 30/16Z 30/17Z 30/18Z 30/19Z 30/20Z 30/21Z 30/22Z 30/23Z
Type OBS PRVL
  [TEMP]  
PRVL PRVL PRVL PRVL PRVL PRVL PRVL PRVL PRVL PRVL PRVL PRVL
VIS 9 >6
  [5]  
>6 >6 >6 >6 >6 >6 >6 >6 >6 >6 >6 >6
CIG -- --
  [--]  
-- -- -- -- -- -- -- -- -- -- -- --
Cover CLR SCT
  [SCT]  
SCT SCT SCT FEW FEW FEW FEW FEW FEW FEW FEW FEW
FltCat VFR VFR
  [MVFR]  
VFR VFR VFR VFR VFR VFR VFR VFR VFR VFR VFR VFR
WX -- --
  [BR]  
-- -- -- -- -- -- -- -- -- -- -- --
WDir 20 70
[70]
70 70 70 20 20 20 20 20 20 20 20 20
WSpd 4 6
  [6]  
6 6 6 5 5 5 5 5 5 5 5 5
WGst -- --
  [--]  
-- -- -- -- -- -- -- -- -- -- -- --
R09/27
XWnd 4 2 2 2 2 5 5 5 5 5 5 5 5 5
XGst -- 0 -- -- -- -- -- -- -- -- -- -- -- --
HWnd 1 6 6 6 6 2 2 2 2 2 2 2 2 2
HGst -- 0 -- -- -- -- -- -- -- -- -- -- -- --
R18/36
XWnd 1 6 6 6 6 2 2 2 2 2 2 2 2 2
XGst -- 0 -- -- -- -- -- -- -- -- -- -- -- --
HWnd -4 -2 -2 -2 -2 -5 -5 -5 -5 -5 -5 -5 -5 -5
HGst -- 0 -- -- -- -- -- -- -- -- -- -- -- --

Raw TAF
KCVG 300906Z 3009/3112 07006KT P6SM SCT250
  TEMPO 3010/3012 5SM BR
  FM301500 02005KT P6SM FEW050
  FM310000 VRB03KT P6SM BKN250
  FM310600 VRB04KT P6SM BKN100 OVC200


Raw METAR
KCVG 300952Z 02004KT 9SM CLR 23/21 A3016 RMK AO2 SLP202 T02280206
KCVG 300852Z 06006KT 10SM CLR 23/21 A3017 RMK AO2 SLP204 T02330211 56001
KCVG 300752Z 05005KT 10SM CLR 24/21 A3017 RMK AO2 SLP204 T02390211

METAR Board
Radar Display
Forecast Discussion

TAF Board Legend

Potential Impact
Threat None Slight Moderate High
Visibility (sm) ≥5.1 5.1>X≥3 3>X≥1 <1
Ceiling (100 ft) ≥30.1 30.1>X≥10 10>X≥5 <5
Wind Speed (kt) <10 10≤X<20 20≤X<30 ≥30
Wind Gust (kt) <15 15≤X<25 25≤X<35 ≥35
Weather No Wx Reported VCTS,-TS,-FZRA,SN TS,FZRA +TS,+FZRA,+SN